Time;durP1;ratioP1;P1;durP2;ratioP2;P2;SDS_P1;SDS_P2;PMS_P1;PMS_P2;Temp;Humidity;BMP_temperature;BMP_pressure;BME280_temperature;BME280_humidity;BME280_pressure;Samples;Min_cycle;Max_cycle;Signal;HPM_P1;HPM_P2
2022/06/25 00:00:34;;;;;;;;;;;26.20;46.00;;;;;;1546029;75;1156;-69
2022/06/25 00:02:36;;;;;;;;;;;26.20;46.00;;;;;;1553145;75;677;-67
2022/06/25 00:06:58;;;;;;;;;;;26.20;46.00;;;;;;1551420;75;1616;-68
2022/06/25 00:08:59;;;;;;;;;;;26.20;46.00;;;;;;1552736;75;1926;-67
2022/06/25 00:11:01;;;;;;;;;;;26.20;46.00;;;;;;1547598;75;1154;-68
2022/06/25 00:13:03;;;;;;;;;;;26.20;46.00;;;;;;1551306;75;704;-67
2022/06/25 00:15:06;;;;;;;;;;;26.20;46.00;;;;;;1553714;75;873;-67
2022/06/25 00:17:07;;;;;;;;;;;26.20;46.00;;;;;;1551946;75;1533;-69
2022/06/25 00:19:09;;;;;;;;;;;26.20;46.00;;;;;;1554720;75;652;-67
2022/06/25 00:21:11;;;;;;;;;;;26.20;46.00;;;;;;1551373;75;1175;-67
2022/06/25 00:23:13;;;;;;;;;;;26.20;46.00;;;;;;1551553;75;793;-68
2022/06/25 00:25:15;;;;;;;;;;;26.20;46.00;;;;;;1548868;75;760;-67
2022/06/25 00:27:17;;;;;;;;;;;26.20;46.00;;;;;;1549118;75;517;-68
2022/06/25 00:29:19;;;;;;;;;;;26.20;46.00;;;;;;1554370;75;1929;-67
2022/06/25 00:31:21;;;;;;;;;;;26.20;46.00;;;;;;1554188;75;1161;-67
2022/06/25 00:33:23;;;;;;;;;;;26.20;46.00;;;;;;1553309;75;674;-67
2022/06/25 00:35:25;;;;;;;;;;;26.20;45.90;;;;;;1555016;75;654;-67
2022/06/25 00:37:26;;;;;;;;;;;26.20;46.00;;;;;;1564208;75;809;-67
2022/06/25 00:39:28;;;;;;;;;;;26.20;45.90;;;;;;1555524;75;810;-68
2022/06/25 00:41:30;;;;;;;;;;;26.20;46.00;;;;;;1554051;75;1149;-69
2022/06/25 00:43:32;;;;;;;;;;;26.20;46.00;;;;;;1558735;75;658;-67
2022/06/25 00:45:34;;;;;;;;;;;26.20;45.90;;;;;;1554576;75;625;-66
2022/06/25 00:47:36;;;;;;;;;;;26.20;46.00;;;;;;1554352;75;1935;-67
2022/06/25 00:49:38;;;;;;;;;;;26.20;45.90;;;;;;1554656;75;669;-67
2022/06/25 00:51:40;;;;;;;;;;;26.20;45.90;;;;;;1540686;75;1119;-69
2022/06/25 00:53:43;;;;;;;;;;;26.20;46.00;;;;;;1543132;75;784;-67
2022/06/25 00:55:47;;;;;;;;;;;26.20;45.90;;;;;;1548847;75;628;-67
2022/06/25 00:57:49;;;;;;;;;;;26.20;45.90;;;;;;1554490;75;1151;-68
2022/06/25 00:59:51;;;;;;;;;;;26.20;45.90;;;;;;1548942;75;752;-67
2022/06/25 01:01:53;;;;;;;;;;;26.20;45.90;;;;;;1550452;75;686;-67
2022/06/25 01:03:55;;;;;;;;;;;26.20;45.90;;;;;;1552869;75;695;-67
2022/06/25 01:05:57;;;;;;;;;;;26.20;46.00;;;;;;1554008;75;761;-67
2022/06/25 01:07:59;;;;;;;;;;;26.20;46.00;;;;;;1555417;75;1950;-67
2022/06/25 01:10:01;;;;;;;;;;;26.20;45.90;;;;;;1553712;75;1137;-68
2022/06/25 01:12:03;;;;;;;;;;;26.20;45.90;;;;;;1558477;74;2112;-69
2022/06/25 01:14:09;;;;;;;;;;;26.20;45.90;;;;;;1579391;74;697;-72
2022/06/25 01:16:11;;;;;;;;;;;26.20;45.90;;;;;;1578214;74;647;-72
2022/06/25 01:18:12;;;;;;;;;;;26.20;45.90;;;;;;1591659;73;756;-72
2022/06/25 01:20:15;;;;;;;;;;;26.20;45.90;;;;;;1586476;74;724;-69
2022/06/25 01:22:17;;;;;;;;;;;26.20;45.90;;;;;;1578040;73;1205;-72
2022/06/25 01:24:18;;;;;;;;;;;26.20;45.90;;;;;;1594492;74;698;-72
2022/06/25 01:26:20;;;;;;;;;;;26.20;46.00;;;;;;1567873;74;683;-72
2022/06/25 01:28:22;;;;;;;;;;;26.20;46.00;;;;;;1572294;74;1945;-73
2022/06/25 01:30:24;;;;;;;;;;;26.20;45.90;;;;;;1575851;74;651;-73
2022/06/25 01:32:26;;;;;;;;;;;26.20;45.90;;;;;;1585978;73;1135;-71
2022/06/25 01:34:28;;;;;;;;;;;26.10;45.90;;;;;;1579703;74;628;-72
2022/06/25 01:36:30;;;;;;;;;;;26.10;45.90;;;;;;1569630;74;703;-71
2022/06/25 01:38:31;;;;;;;;;;;26.20;45.80;;;;;;1580788;74;680;-71
2022/06/25 01:40:33;;;;;;;;;;;26.10;45.90;;;;;;1567792;74;565;-72
2022/06/25 01:44:55;;;;;;;;;;;26.20;45.90;;;;;;1577581;74;568;-73
2022/06/25 01:46:57;;;;;;;;;;;26.10;45.90;;;;;;1574961;74;684;-72
2022/06/25 01:48:59;;;;;;;;;;;26.10;45.90;;;;;;1575727;74;1935;-71
2022/06/25 01:51:01;;;;;;;;;;;26.10;45.90;;;;;;1577316;74;1134;-71
2022/06/25 01:53:03;;;;;;;;;;;26.10;45.90;;;;;;1575337;74;696;-72
2022/06/25 01:55:05;;;;;;;;;;;26.20;45.90;;;;;;1594386;74;696;-72
2022/06/25 01:57:07;;;;;;;;;;;26.20;45.90;;;;;;1588914;74;729;-72
2022/06/25 01:59:09;;;;;;;;;;;26.20;45.90;;;;;;1584501;74;642;-72
2022/06/25 02:01:11;;;;;;;;;;;26.20;45.90;;;;;;1575569;74;1120;-72
2022/06/25 02:03:14;;;;;;;;;;;26.10;45.90;;;;;;1569904;74;732;-73
2022/06/25 02:05:16;;;;;;;;;;;26.10;45.90;;;;;;1574970;74;633;-71
2022/06/25 02:07:18;;;;;;;;;;;26.20;45.80;;;;;;1575930;74;681;-72
2022/06/25 02:09:20;;;;;;;;;;;26.10;45.90;;;;;;1579598;74;1946;-71
2022/06/25 02:11:24;;;;;;;;;;;26.10;45.80;;;;;;1569249;73;1142;-72
2022/06/25 02:13:26;;;;;;;;;;;26.10;45.80;;;;;;1583042;74;709;-71
2022/06/25 02:15:27;;;;;;;;;;;26.20;45.90;;;;;;1595697;74;697;-72
2022/06/25 02:17:29;;;;;;;;;;;26.20;45.80;;;;;;1589432;74;672;-72
2022/06/25 02:19:31;;;;;;;;;;;26.20;45.80;;;;;;1574895;74;658;-72
2022/06/25 02:21:33;;;;;;;;;;;26.10;45.80;;;;;;1592047;73;1182;-73
2022/06/25 02:23:35;;;;;;;;;;;26.10;45.90;;;;;;1577479;74;651;-73
2022/06/25 02:25:37;;;;;;;;;;;26.20;45.80;;;;;;1572441;74;591;-72
2022/06/25 02:27:39;;;;;;;;;;;26.10;45.80;;;;;;1586454;74;662;-73
2022/06/25 02:29:41;;;;;;;;;;;26.20;45.90;;;;;;1571837;74;1937;-70
2022/06/25 02:31:42;;;;;;;;;;;26.20;45.80;;;;;;1588497;73;1129;-72
2022/06/25 02:33:44;;;;;;;;;;;26.20;45.80;;;;;;1583358;74;609;-70
2022/06/25 02:35:46;;;;;;;;;;;26.10;45.80;;;;;;1576577;74;655;-72
2022/06/25 02:37:48;;;;;;;;;;;26.20;45.90;;;;;;1576130;74;702;-72
2022/06/25 02:39:50;;;;;;;;;;;26.20;45.90;;;;;;1584209;74;679;-72
2022/06/25 02:41:52;;;;;;;;;;;26.10;45.80;;;;;;1575197;74;1151;-72
2022/06/25 02:43:54;;;;;;;;;;;26.20;45.80;;;;;;1586404;74;709;-72
2022/06/25 02:45:56;;;;;;;;;;;26.10;45.80;;;;;;1579626;74;650;-71
2022/06/25 02:47:57;;;;;;;;;;;26.10;45.80;;;;;;1590866;74;710;-71
2022/06/25 02:49:59;;;;;;;;;;;26.10;45.80;;;;;;1568454;74;1954;-71
2022/06/25 02:52:01;;;;;;;;;;;26.10;45.80;;;;;;1589816;73;1119;-72
2022/06/25 02:54:03;;;;;;;;;;;26.10;45.80;;;;;;1596481;74;633;-72
2022/06/25 03:00:46;;;;;;;;;;;26.10;45.80;;;;;;1571660;73;1682;-73
2022/06/25 03:02:47;;;;;;;;;;;26.20;45.80;;;;;;1592161;74;669;-72
2022/06/25 03:04:49;;;;;;;;;;;26.10;45.80;;;;;;1580369;74;1544;-72
2022/06/25 03:06:51;;;;;;;;;;;26.10;45.80;;;;;;1576274;74;661;-72
2022/06/25 03:08:53;;;;;;;;;;;26.20;45.80;;;;;;1591886;74;1934;-72
2022/06/25 03:10:55;;;;;;;;;;;26.10;45.80;;;;;;1569458;74;1151;-72
2022/06/25 03:12:57;;;;;;;;;;;26.20;45.70;;;;;;1570456;74;707;-72
2022/06/25 03:14:59;;;;;;;;;;;26.10;45.80;;;;;;1576661;74;710;-72
2022/06/25 03:17:01;;;;;;;;;;;26.10;45.70;;;;;;1588359;74;634;-72
2022/06/25 03:19:03;;;;;;;;;;;26.10;45.70;;;;;;1583841;74;630;-74
2022/06/25 03:21:05;;;;;;;;;;;26.20;45.70;;;;;;1570967;74;1169;-73
2022/06/25 03:23:07;;;;;;;;;;;26.20;45.70;;;;;;1581906;74;682;-73
2022/06/25 03:25:09;;;;;;;;;;;26.20;45.70;;;;;;1582180;74;666;-73
2022/06/25 03:27:11;;;;;;;;;;;26.20;45.70;;;;;;1589148;74;718;-72
2022/06/25 03:29:13;;;;;;;;;;;26.10;45.60;;;;;;1569649;74;1939;-73
2022/06/25 03:31:15;;;;;;;;;;;26.20;45.70;;;;;;1570091;74;1200;-72
2022/06/25 03:33:16;;;;;;;;;;;26.10;45.60;;;;;;1574827;74;712;-72
2022/06/25 03:35:18;;;;;;;;;;;26.20;45.70;;;;;;1580926;74;714;-73
2022/06/25 03:37:20;;;;;;;;;;;26.20;45.60;;;;;;1575223;74;676;-73
2022/06/25 03:39:22;;;;;;;;;;;26.10;45.60;;;;;;1585890;74;728;-72
2022/06/25 03:41:33;;;;;;;;;;;26.20;45.60;;;;;;1573069;74;1205;-73
2022/06/25 03:43:35;;;;;;;;;;;26.20;45.60;;;;;;1585862;74;655;-73
2022/06/25 03:45:38;;;;;;;;;;;26.20;45.60;;;;;;1586347;74;790;-73
2022/06/25 03:47:40;;;;;;;;;;;26.20;45.60;;;;;;1579555;74;725;-73
2022/06/25 03:49:42;;;;;;;;;;;26.20;45.60;;;;;;1566685;74;1938;-72
2022/06/25 03:51:44;;;;;;;;;;;26.20;45.60;;;;;;1587332;73;1134;-72
2022/06/25 03:53:46;;;;;;;;;;;26.20;45.50;;;;;;1577061;74;648;-74
2022/06/25 03:55:48;;;;;;;;;;;26.10;45.50;;;;;;1579783;74;674;-72
2022/06/25 03:57:49;;;;;;;;;;;26.20;45.50;;;;;;1582354;74;662;-72
2022/06/25 03:59:52;;;;;;;;;;;26.20;45.60;;;;;;1574552;74;737;-71
2022/06/25 04:01:53;;;;;;;;;;;26.20;45.60;;;;;;1580754;73;1627;-73
2022/06/25 04:03:55;;;;;;;;;;;26.20;45.60;;;;;;1573999;74;657;-73
2022/06/25 04:05:58;;;;;;;;;;;26.20;45.50;;;;;;1572730;74;694;-73
2022/06/25 04:07:59;;;;;;;;;;;26.10;45.50;;;;;;1581119;74;634;-73
2022/06/25 04:10:01;;;;;;;;;;;26.20;45.50;;;;;;1585945;74;1928;-73
2022/06/25 04:12:03;;;;;;;;;;;26.20;45.50;;;;;;1581048;73;1164;-73
2022/06/25 04:14:06;;;;;;;;;;;26.10;45.50;;;;;;1581800;74;811;-72
2022/06/25 04:16:08;;;;;;;;;;;26.20;45.50;;;;;;1578003;74;699;-74
2022/06/25 04:18:10;;;;;;;;;;;26.20;45.50;;;;;;1594583;74;636;-73
2022/06/25 04:20:12;;;;;;;;;;;26.20;45.50;;;;;;1582126;74;553;-72
2022/06/25 04:22:14;;;;;;;;;;;26.20;45.50;;;;;;1580867;74;1189;-73
2022/06/25 04:24:16;;;;;;;;;;;26.10;45.50;;;;;;1592795;74;749;-73
2022/06/25 04:26:17;;;;;;;;;;;26.20;45.50;;;;;;1582316;74;698;-72
2022/06/25 04:30:43;;;;;;;;;;;26.10;45.50;;;;;;1556980;75;1928;-70
2022/06/25 04:32:45;;;;;;;;;;;26.10;45.60;;;;;;1547306;75;595;-73
2022/06/25 04:34:47;;;;;;;;;;;26.20;45.60;;;;;;1522371;76;673;-71
2022/06/25 04:36:49;;;;;;;;;;;26.20;45.60;;;;;;1555667;75;762;-73
2022/06/25 04:38:51;;;;;;;;;;;26.20;45.60;;;;;;1569785;74;727;-73
2022/06/25 04:40:53;;;;;;;;;;;26.20;45.50;;;;;;1560760;75;1154;-73
2022/06/25 04:42:55;;;;;;;;;;;26.10;45.60;;;;;;1576250;74;655;-73
2022/06/25 04:44:57;;;;;;;;;;;26.20;45.60;;;;;;1568447;74;700;-73
2022/06/25 04:46:58;;;;;;;;;;;26.10;45.60;;;;;;1579528;74;703;-73
2022/06/25 04:49:00;;;;;;;;;;;26.10;45.60;;;;;;1572413;74;1930;-73
2022/06/25 04:51:02;;;;;;;;;;;26.10;45.60;;;;;;1572355;74;1168;-72
2022/06/25 04:53:04;;;;;;;;;;;26.10;45.60;;;;;;1575430;74;726;-74
2022/06/25 04:55:06;;;;;;;;;;;26.20;45.70;;;;;;1571264;74;681;-72
2022/06/25 04:57:08;;;;;;;;;;;26.10;45.60;;;;;;1573876;74;1447;-73
2022/06/25 04:59:10;;;;;;;;;;;26.20;45.50;;;;;;1580560;74;702;-72
2022/06/25 05:01:12;;;;;;;;;;;26.20;45.60;;;;;;1574373;73;1146;-72
2022/06/25 05:03:14;;;;;;;;;;;26.20;45.60;;;;;;1569484;74;580;-73
2022/06/25 05:05:15;;;;;;;;;;;26.20;45.60;;;;;;1571541;74;667;-71
2022/06/25 05:07:17;;;;;;;;;;;26.10;45.60;;;;;;1572944;74;672;-73
2022/06/25 05:09:19;;;;;;;;;;;26.20;45.60;;;;;;1580690;74;1937;-73
2022/06/25 05:11:21;;;;;;;;;;;26.10;45.60;;;;;;1573345;74;1137;-73
2022/06/25 05:13:24;;;;;;;;;;;26.10;45.60;;;;;;1575391;74;709;-73
2022/06/25 05:15:25;;;;;;;;;;;26.10;45.60;;;;;;1578795;74;736;-71
2022/06/25 05:17:29;;;;;;;;;;;26.20;45.60;;;;;;1569062;74;702;-73
2022/06/25 05:19:30;;;;;;;;;;;26.20;45.60;;;;;;1579624;74;673;-73
2022/06/25 05:21:32;;;;;;;;;;;26.20;45.50;;;;;;1570937;74;1146;-73
2022/06/25 05:23:34;;;;;;;;;;;26.20;45.60;;;;;;1573909;74;672;-72
2022/06/25 05:25:36;;;;;;;;;;;26.20;45.60;;;;;;1583542;74;648;-72
2022/06/25 05:27:38;;;;;;;;;;;26.20;45.60;;;;;;1570499;74;742;-73
2022/06/25 05:29:40;;;;;;;;;;;26.20;45.60;;;;;;1579651;74;1931;-73
2022/06/25 05:31:43;;;;;;;;;;;26.10;45.60;;;;;;1571973;74;1166;-73
2022/06/25 05:33:45;;;;;;;;;;;26.20;45.60;;;;;;1568724;74;606;-74
2022/06/25 05:35:47;;;;;;;;;;;26.20;45.60;;;;;;1574137;74;746;-73
2022/06/25 05:37:49;;;;;;;;;;;26.20;45.60;;;;;;1576617;73;707;-73
2022/06/25 05:39:51;;;;;;;;;;;26.20;45.70;;;;;;1567967;74;659;-73
2022/06/25 05:41:53;;;;;;;;;;;26.10;45.70;;;;;;1570075;74;1126;-73
2022/06/25 05:43:55;;;;;;;;;;;26.20;45.70;;;;;;1569053;74;687;-73
2022/06/25 05:45:57;;;;;;;;;;;26.20;45.70;;;;;;1568710;75;741;-72
2022/06/25 05:47:59;;;;;;;;;;;26.10;45.70;;;;;;1577776;74;725;-73
2022/06/25 05:50:01;;;;;;;;;;;26.20;45.70;;;;;;1573802;74;1948;-73
2022/06/25 05:52:03;;;;;;;;;;;26.10;45.70;;;;;;1567891;74;1128;-73
2022/06/25 05:54:04;;;;;;;;;;;26.20;45.70;;;;;;1581114;74;1477;-73
2022/06/25 05:56:06;;;;;;;;;;;26.10;45.70;;;;;;1574555;74;667;-72
2022/06/25 05:58:08;;;;;;;;;;;26.10;45.70;;;;;;1568918;74;686;-73
2022/06/25 06:00:10;;;;;;;;;;;26.20;45.70;;;;;;1571927;74;730;-73
2022/06/25 06:02:12;;;;;;;;;;;26.10;45.70;;;;;;1569235;74;1128;-73
2022/06/25 06:04:14;;;;;;;;;;;26.20;45.70;;;;;;1567658;74;567;-73
2022/06/25 06:06:16;;;;;;;;;;;26.20;45.60;;;;;;1579275;74;689;-73
2022/06/25 06:08:18;;;;;;;;;;;26.20;45.60;;;;;;1569582;74;652;-73
2022/06/25 06:10:19;;;;;;;;;;;26.20;45.60;;;;;;1573222;74;1949;-72
2022/06/25 06:12:21;;;;;;;;;;;26.30;45.60;;;;;;1570713;74;1162;-72
2022/06/25 06:14:23;;;;;;;;;;;26.30;45.60;;;;;;1564639;74;708;-73
2022/06/25 06:16:25;;;;;;;;;;;26.20;45.50;;;;;;1576825;75;778;-73
2022/06/25 06:18:27;;;;;;;;;;;26.30;45.50;;;;;;1567922;74;577;-73
2022/06/25 06:20:29;;;;;;;;;;;26.30;45.50;;;;;;1573232;74;677;-73
2022/06/25 06:22:31;;;;;;;;;;;26.30;45.50;;;;;;1564953;74;1128;-73
2022/06/25 06:24:33;;;;;;;;;;;26.30;45.50;;;;;;1565898;74;654;-72
2022/06/25 06:26:34;;;;;;;;;;;26.30;45.50;;;;;;1578444;74;679;-73
2022/06/25 06:28:36;;;;;;;;;;;26.30;45.50;;;;;;1563291;74;726;-73
2022/06/25 06:30:38;;;;;;;;;;;26.30;45.40;;;;;;1573353;74;1942;-74
2022/06/25 06:32:40;;;;;;;;;;;26.30;45.40;;;;;;1576105;74;1168;-73
2022/06/25 06:34:43;;;;;;;;;;;26.30;45.40;;;;;;1573405;74;649;-73
2022/06/25 06:36:45;;;;;;;;;;;26.30;45.40;;;;;;1569777;74;685;-73
2022/06/25 06:38:47;;;;;;;;;;;26.40;45.40;;;;;;1566982;74;706;-73
2022/06/25 06:40:49;;;;;;;;;;;26.40;45.40;;;;;;1565550;74;1087;-73
2022/06/25 06:42:50;;;;;;;;;;;26.40;45.30;;;;;;1565443;74;618;-72
2022/06/25 06:44:52;;;;;;;;;;;26.40;45.30;;;;;;1571706;74;688;-72
2022/06/25 06:46:54;;;;;;;;;;;26.50;45.20;;;;;;1567481;74;688;-72
2022/06/25 06:48:56;;;;;;;;;;;26.40;45.10;;;;;;1575184;74;663;-72
2022/06/25 06:50:58;;;;;;;;;;;26.40;45.20;;;;;;1577690;73;1932;-72
2022/06/25 06:53:00;;;;;;;;;;;26.40;45.20;;;;;;1571351;75;666;-72
2022/06/25 06:55:04;;;;;;;;;;;26.40;45.20;;;;;;1576767;74;722;-72
2022/06/25 06:57:05;;;;;;;;;;;26.40;45.20;;;;;;1569890;74;1147;-72
2022/06/25 06:59:08;;;;;;;;;;;26.40;45.10;;;;;;1564505;74;696;-72
2022/06/25 07:01:10;;;;;;;;;;;26.40;45.10;;;;;;1571649;74;1128;-72
2022/06/25 07:03:12;;;;;;;;;;;26.50;45.10;;;;;;1575660;74;670;-70
2022/06/25 07:05:13;;;;;;;;;;;26.50;45.10;;;;;;1574817;74;674;-72
2022/06/25 07:07:15;;;;;;;;;;;26.50;45.00;;;;;;1565584;74;640;-72
2022/06/25 07:09:17;;;;;;;;;;;26.50;45.00;;;;;;1572921;74;683;-72
2022/06/25 07:11:28;;;;;;;;;;;26.50;45.00;;;;;;1571285;73;229704;-65
2022/06/25 07:13:30;;;;;;;;;;;26.50;45.00;;;;;;1565828;75;712;-67
2022/06/25 07:15:32;;;;;;;;;;;26.50;44.90;;;;;;1553712;74;763;-66
2022/06/25 07:17:34;;;;;;;;;;;26.50;45.00;;;;;;1562068;75;700;-67
2022/06/25 07:19:36;;;;;;;;;;;26.60;45.00;;;;;;1546068;76;704;-68
2022/06/25 07:21:37;;;;;;;;;;;26.50;45.00;;;;;;1564232;74;1197;-67
2022/06/25 07:23:39;;;;;;;;;;;26.50;45.00;;;;;;1545531;75;710;-67
2022/06/25 07:25:42;;;;;;;;;;;26.50;45.00;;;;;;1528142;76;687;-65
2022/06/25 07:27:44;;;;;;;;;;;26.50;45.00;;;;;;1529014;76;751;-67
2022/06/25 07:29:46;;;;;;;;;;;26.50;45.00;;;;;;1559342;75;700;-68
2022/06/25 07:31:49;;;;;;;;;;;26.60;45.00;;;;;;1557116;75;1943;-67
2022/06/25 07:33:51;;;;;;;;;;;26.50;45.10;;;;;;1550514;75;678;-67
2022/06/25 07:35:53;;;;;;;;;;;26.50;45.00;;;;;;1553737;75;807;-67
2022/06/25 07:37:55;;;;;;;;;;;26.60;45.00;;;;;;1541565;75;662;-68
2022/06/25 07:39:57;;;;;;;;;;;26.60;45.00;;;;;;1539289;75;715;-67
2022/06/25 07:41:59;;;;;;;;;;;26.60;45.00;;;;;;1564748;75;1085;-67
2022/06/25 07:44:02;;;;;;;;;;;26.60;44.90;;;;;;1550752;75;704;-67
2022/06/25 07:46:04;;;;;;;;;;;26.60;44.90;;;;;;1556875;75;1405;-68
2022/06/25 07:48:06;;;;;;;;;;;26.60;44.80;;;;;;1547806;75;790;-67
2022/06/25 07:52:28;;;;;;;;;;;26.70;44.80;;;;;;1538894;75;1178;-67
2022/06/25 07:54:31;;;;;;;;;;;26.70;44.90;;;;;;1545672;75;703;-65
2022/06/25 07:56:33;;;;;;;;;;;26.60;44.90;;;;;;1540553;75;707;-68
2022/06/25 07:58:35;;;;;;;;;;;26.60;44.90;;;;;;1540696;75;731;-68
2022/06/25 08:00:36;;;;;;;;;;;26.60;44.90;;;;;;1554497;75;727;-67
2022/06/25 08:02:38;;;;;;;;;;;26.60;44.80;;;;;;1528580;76;1114;-68
2022/06/25 08:04:40;;;;;;;;;;;26.70;44.70;;;;;;1536214;75;784;-66
2022/06/25 08:06:43;;;;;;;;;;;26.60;44.80;;;;;;1518325;76;753;-67
2022/06/25 08:08:45;;;;;;;;;;;26.70;44.70;;;;;;1554563;75;742;-65
2022/06/25 08:10:46;;;;;;;;;;;26.60;44.70;;;;;;1550935;75;1940;-67
2022/06/25 08:12:48;;;;;;;;;;;26.70;44.70;;;;;;1562241;75;1100;-67
2022/06/25 08:14:50;;;;;;;;;;;26.70;44.70;;;;;;1556005;75;824;-66
2022/06/25 08:16:52;;;;;;;;;;;26.80;44.70;;;;;;1554782;75;719;-67
2022/06/25 08:18:54;;;;;;;;;;;26.70;44.60;;;;;;1565157;75;705;-67
2022/06/25 08:20:56;;;;;;;;;;;26.80;44.50;;;;;;1554565;75;788;-65
2022/06/25 08:22:58;;;;;;;;;;;26.80;44.60;;;;;;1552829;75;1051;-64
2022/06/25 08:25:00;;;;;;;;;;;26.70;44.50;;;;;;1556190;75;692;-66
2022/06/25 08:27:02;;;;;;;;;;;26.70;44.50;;;;;;1563029;75;778;-67
2022/06/25 08:29:03;;;;;;;;;;;26.80;44.40;;;;;;1556776;75;703;-68
2022/06/25 08:31:06;;;;;;;;;;;26.80;44.40;;;;;;1556693;75;1939;-67
2022/06/25 08:33:08;;;;;;;;;;;26.70;44.40;;;;;;1564864;75;750;-67
2022/06/25 08:35:09;;;;;;;;;;;26.80;44.40;;;;;;1553593;75;720;-68
2022/06/25 08:37:11;;;;;;;;;;;26.80;44.40;;;;;;1565746;75;741;-67
2022/06/25 08:39:13;;;;;;;;;;;26.70;44.40;;;;;;1547915;75;669;-65
2022/06/25 08:41:15;;;;;;;;;;;26.80;44.40;;;;;;1559245;75;1135;-67
2022/06/25 08:43:17;;;;;;;;;;;26.80;44.40;;;;;;1555449;75;1575;-67
2022/06/25 08:45:19;;;;;;;;;;;26.80;44.30;;;;;;1556140;75;753;-67
2022/06/25 08:47:21;;;;;;;;;;;26.80;44.40;;;;;;1551410;75;655;-67
2022/06/25 08:49:23;;;;;;;;;;;26.70;44.30;;;;;;1558036;75;641;-68
2022/06/25 08:51:29;;;;;;;;;;;26.70;44.30;;;;;;1562684;75;1942;-66
2022/06/25 08:53:32;;;;;;;;;;;26.80;44.30;;;;;;1548389;75;1623;-67
2022/06/25 08:55:38;;;;;;;;;;;26.80;44.30;;;;;;1556917;75;697;-68
2022/06/25 08:57:41;;;;;;;;;;;26.80;44.30;;;;;;1558846;75;682;-67
2022/06/25 08:59:43;;;;;;;;;;;26.70;44.40;;;;;;1570742;75;689;-67
2022/06/25 09:01:45;;;;;;;;;;;26.70;44.50;;;;;;1545899;75;1101;-67
2022/06/25 09:03:47;;;;;;;;;;;26.70;44.50;;;;;;1569128;75;730;-67
2022/06/25 09:05:48;;;;;;;;;;;26.70;44.50;;;;;;1552807;75;755;-67
2022/06/25 09:07:54;;;;;;;;;;;26.70;44.50;;;;;;1555091;75;687;-67
2022/06/25 09:09:56;;;;;;;;;;;26.70;44.50;;;;;;1557328;75;784;-67
2022/06/25 09:12:04;;;;;;;;;;;26.70;44.40;;;;;;1556216;75;1929;-67
2022/06/25 09:14:21;;;;;;;;;;;26.70;44.40;;;;;;1552734;75;1689;-67
2022/06/25 09:16:24;;;;;;;;;;;26.80;44.40;;;;;;1561930;75;713;-67
2022/06/25 09:18:26;;;;;;;;;;;26.70;44.50;;;;;;1556629;75;649;-67
2022/06/25 09:20:28;;;;;;;;;;;26.70;44.50;;;;;;1564075;75;799;-67
2022/06/25 09:22:31;;;;;;;;;;;26.70;44.60;;;;;;1556778;75;1137;-67
2022/06/25 09:24:46;;;;;;;;;;;26.80;44.60;;;;;;1553223;75;644;-65
2022/06/25 09:26:52;;;;;;;;;;;26.70;44.60;;;;;;1547265;75;1040;-67
2022/06/25 09:28:54;;;;;;;;;;;26.70;44.50;;;;;;1555201;75;781;-68
2022/06/25 09:30:56;;;;;;;;;;;26.70;44.50;;;;;;1555313;75;1929;-67
2022/06/25 09:32:58;;;;;;;;;;;26.70;44.50;;;;;;1553554;75;1127;-67
2022/06/25 09:35:00;;;;;;;;;;;26.80;44.50;;;;;;1547417;75;738;-67
2022/06/25 09:37:22;;;;;;;;;;;26.70;44.50;;;;;;1552273;75;717;-66
2022/06/25 09:39:24;;;;;;;;;;;26.70;44.50;;;;;;1556001;75;1386;-66
2022/06/25 09:41:26;;;;;;;;;;;26.70;44.50;;;;;;1556881;75;1136;-67
2022/06/25 09:43:29;;;;;;;;;;;26.70;44.40;;;;;;1556483;75;682;-67
2022/06/25 09:45:30;;;;;;;;;;;26.80;44.40;;;;;;1548845;75;699;-67
2022/06/25 09:47:36;;;;;;;;;;;26.80;44.50;;;;;;1567791;75;1281;-67
2022/06/25 09:49:38;;;;;;;;;;;26.70;44.40;;;;;;1542329;75;1828;-67
2022/06/25 09:51:40;;;;;;;;;;;26.70;44.50;;;;;;1545049;75;1951;-64
2022/06/25 09:53:46;;;;;;;;;;;26.70;44.50;;;;;;1550919;75;674;-66
2022/06/25 09:55:48;;;;;;;;;;;26.70;44.60;;;;;;1548569;75;707;-67
2022/06/25 09:57:51;;;;;;;;;;;26.70;44.70;;;;;;1554273;75;679;-68
2022/06/25 09:59:53;;;;;;;;;;;26.70;44.70;;;;;;1549257;75;765;-67
2022/06/25 10:01:55;;;;;;;;;;;26.70;44.70;;;;;;1549847;75;1153;-68
2022/06/25 10:03:57;;;;;;;;;;;26.70;44.80;;;;;;1546157;75;735;-67
2022/06/25 10:05:59;;;;;;;;;;;26.70;44.70;;;;;;1554317;75;679;-67
2022/06/25 10:08:01;;;;;;;;;;;26.60;44.70;;;;;;1562704;75;698;-67
2022/06/25 10:10:03;;;;;;;;;;;26.70;44.80;;;;;;1549284;75;750;-67
2022/06/25 10:12:05;;;;;;;;;;;26.70;44.80;;;;;;1544174;75;1944;-67
2022/06/25 10:14:07;;;;;;;;;;;26.70;44.80;;;;;;1548140;75;746;-67
2022/06/25 10:16:09;;;;;;;;;;;26.60;44.80;;;;;;1553616;75;726;-67
2022/06/25 10:18:11;;;;;;;;;;;26.60;44.90;;;;;;1549209;75;658;-67
2022/06/25 10:20:13;;;;;;;;;;;26.60;44.90;;;;;;1544230;75;716;-67
2022/06/25 10:22:15;;;;;;;;;;;26.50;44.90;;;;;;1548920;75;1142;-67
2022/06/25 10:24:17;;;;;;;;;;;26.70;44.80;;;;;;1554221;75;653;-67
2022/06/25 10:26:19;;;;;;;;;;;26.60;44.80;;;;;;1554091;75;737;-67
2022/06/25 10:28:25;;;;;;;;;;;26.60;44.80;;;;;;1550561;75;619;-67
2022/06/25 10:30:41;;;;;;;;;;;26.70;44.70;;;;;;1550100;75;733;-67
2022/06/25 10:32:43;;;;;;;;;;;26.70;44.70;;;;;;1549615;75;1917;-67
2022/06/25 10:34:58;;;;;;;;;;;26.70;44.70;;;;;;1550634;75;1564;-68
2022/06/25 10:37:01;;;;;;;;;;;26.70;44.70;;;;;;1544354;75;643;-67
2022/06/25 10:39:04;;;;;;;;;;;26.60;44.70;;;;;;1552413;75;696;-67
2022/06/25 10:43:46;;;;;;;;;;;26.60;44.80;;;;;;1553520;75;1627;-65
2022/06/25 10:45:48;;;;;;;;;;;26.60;44.80;;;;;;1552351;75;780;-69
2022/06/25 10:47:50;;;;;;;;;;;26.60;44.80;;;;;;1549543;75;788;-67
2022/06/25 10:49:52;;;;;;;;;;;26.60;44.80;;;;;;1549109;75;700;-68
2022/06/25 10:51:54;;;;;;;;;;;26.60;44.80;;;;;;1552451;75;1959;-67
2022/06/25 10:53:57;;;;;;;;;;;26.60;44.80;;;;;;1551489;75;697;-67
2022/06/25 10:55:59;;;;;;;;;;;26.60;44.80;;;;;;1547871;75;770;-67
2022/06/25 10:58:11;;;;;;;;;;;26.60;44.70;;;;;;1547126;75;719;-67
2022/06/25 11:00:13;;;;;;;;;;;26.60;44.70;;;;;;1542215;75;755;-67
2022/06/25 11:02:16;;;;;;;;;;;26.60;44.80;;;;;;1546916;75;1154;-66
2022/06/25 11:04:18;;;;;;;;;;;26.60;44.80;;;;;;1559645;75;650;-64
2022/06/25 11:06:29;;;;;;;;;;;26.60;44.70;;;;;;1555517;75;726;-67
2022/06/25 11:08:34;;;;;;;;;;;26.60;44.70;;;;;;1548476;75;894;-67
2022/06/25 11:10:36;;;;;;;;;;;26.60;44.70;;;;;;1549199;75;705;-68
2022/06/25 11:12:39;;;;;;;;;;;26.60;44.70;;;;;;1559639;75;1954;-68
2022/06/25 11:14:41;;;;;;;;;;;26.60;44.70;;;;;;1550404;75;1009;-66
2022/06/25 11:16:43;;;;;;;;;;;26.60;44.70;;;;;;1556552;75;624;-67
2022/06/25 11:18:49;;;;;;;;;;;26.70;44.70;;;;;;1554603;75;747;-68
2022/06/25 11:20:51;;;;;;;;;;;26.60;44.70;;;;;;1546396;75;760;-69
2022/06/25 11:22:53;;;;;;;;;;;26.60;44.70;;;;;;1554081;75;1134;-68
2022/06/25 11:29:36;;;;;;;;;;;26.60;44.70;;;;;;1545509;75;593;-67
2022/06/25 11:31:39;;;;;;;;;;;26.60;44.70;;;;;;1548154;75;1933;-68
2022/06/25 11:33:43;;;;;;;;;;;26.60;44.70;;;;;;1528114;76;619;-67
2022/06/25 11:35:45;;;;;;;;;;;26.60;44.70;;;;;;1548293;75;694;-67
2022/06/25 11:37:47;;;;;;;;;;;26.60;44.70;;;;;;1541599;75;904;-67
2022/06/25 11:39:48;;;;;;;;;;;26.60;44.70;;;;;;1544072;75;781;-67
2022/06/25 11:41:51;;;;;;;;;;;26.60;44.60;;;;;;1553156;75;1158;-68
2022/06/25 11:43:53;;;;;;;;;;;26.60;44.60;;;;;;1548138;75;606;-68
2022/06/25 11:45:58;;;;;;;;;;;26.70;44.50;;;;;;1550035;75;740;-67
2022/06/25 11:48:00;;;;;;;;;;;26.60;44.50;;;;;;1557342;75;666;-67
2022/06/25 11:50:09;;;;;;;;;;;26.60;44.40;;;;;;1552506;75;939;-67
2022/06/25 11:52:11;;;;;;;;;;;26.70;44.30;;;;;;1554857;75;1946;-67
2022/06/25 11:54:13;;;;;;;;;;;26.70;44.30;;;;;;1547103;75;726;-67
2022/06/25 11:56:15;;;;;;;;;;;26.60;44.20;;;;;;1552434;75;760;-67
2022/06/25 11:58:17;;;;;;;;;;;26.70;44.20;;;;;;1554521;75;815;-67
2022/06/25 12:00:19;;;;;;;;;;;26.70;44.10;;;;;;1561567;75;698;-67
2022/06/25 12:02:21;;;;;;;;;;;26.70;44.10;;;;;;1548293;75;1136;-67
2022/06/25 12:04:24;;;;;;;;;;;26.70;44.00;;;;;;1549792;75;688;-67
2022/06/25 12:06:26;;;;;;;;;;;26.60;44.00;;;;;;1547516;75;685;-66
2022/06/25 12:08:28;;;;;;;;;;;26.70;44.00;;;;;;1553689;75;717;-67
2022/06/25 12:10:30;;;;;;;;;;;26.70;43.90;;;;;;1550273;75;765;-67
2022/06/25 12:12:33;;;;;;;;;;;26.60;43.90;;;;;;1559970;75;1932;-67
2022/06/25 12:14:34;;;;;;;;;;;26.60;43.90;;;;;;1549521;75;781;-67
2022/06/25 12:16:43;;;;;;;;;;;26.60;44.00;;;;;;1553081;75;694;-67
2022/06/25 12:18:45;;;;;;;;;;;26.60;43.90;;;;;;1547810;75;772;-67
2022/06/25 12:20:54;;;;;;;;;;;26.60;43.90;;;;;;1548620;75;772;-67
2022/06/25 12:22:56;;;;;;;;;;;26.60;44.00;;;;;;1542817;75;1784;-66
2022/06/25 12:25:00;;;;;;;;;;;26.60;43.90;;;;;;1549922;75;770;-67
2022/06/25 12:27:02;;;;;;;;;;;26.60;43.90;;;;;;1547032;75;1324;-68
2022/06/25 12:29:14;;;;;;;;;;;26.70;44.00;;;;;;1552379;75;763;-67
2022/06/25 12:31:16;;;;;;;;;;;26.70;44.00;;;;;;1552729;75;1198;-66